Time;durP1;ratioP1;P1;durP2;ratioP2;P2;SDS_P1;SDS_P2;PMS_P1;PMS_P2;Temp;Humidity;BMP_temperature;BMP_pressure;BME280_temperature;BME280_humidity;BME280_pressure;Samples;Min_cycle;Max_cycle;Signal;HPM_P1;HPM_P2
2022/08/02 00:00:29;;;;;;;6.10;3.90;;;;;;;;;;110681;1251;35294;-41
2022/08/02 00:03:10;;;;;;;6.10;4.50;;;;;;;;;;110709;1251;35060;-34
2022/08/02 00:05:42;;;;;;;5.70;4.20;;;;;;;;;;110637;1253;33263;-35
2022/08/02 00:08:15;;;;;;;5.80;4.30;;;;;;;;;;110753;1245;36734;-38
2022/08/02 00:10:47;;;;;;;5.50;4.00;;;;;;;;;;110655;1251;36105;-37
2022/08/02 00:13:22;;;;;;;5.70;4.20;;;;;;;;;;110590;1253;35093;-39
2022/08/02 00:15:54;;;;;;;6.50;4.40;;;;;;;;;;110709;1251;35266;-39
2022/08/02 00:18:27;;;;;;;6.70;4.50;;;;;;;;;;110677;1251;35137;-36
2022/08/02 00:20:59;;;;;;;6.00;4.60;;;;;;;;;;110748;1245;34595;-36
2022/08/02 00:23:31;;;;;;;5.10;3.80;;;;;;;;;;110659;1252;35440;-42
2022/08/02 00:26:03;;;;;;;6.10;4.50;;;;;;;;;;110659;1251;33322;-36
2022/08/02 00:28:35;;;;;;;5.60;4.20;;;;;;;;;;110681;1244;34073;-37
2022/08/02 00:31:07;;;;;;;6.20;4.50;;;;;;;;;;110726;1244;35140;-37
2022/08/02 00:33:40;;;;;;;5.90;4.20;;;;;;;;;;110752;1245;34969;-37
2022/08/02 00:36:12;;;;;;;5.90;4.20;;;;;;;;;;110735;1251;35109;-38
2022/08/02 00:38:45;;;;;;;5.90;4.20;;;;;;;;;;110602;1253;34965;-36
2022/08/02 00:41:17;;;;;;;;;;;;;;;;;;110761;1245;35089;-36
2022/08/02 00:43:51;;;;;;;5.30;4.30;;;;;;;;;;110762;1244;35340;-42
2022/08/02 00:46:24;;;;;;;5.80;4.60;;;;;;;;;;110662;1244;33579;-43
2022/08/02 00:48:55;;;;;;;;;;;;;;;;;;110733;1251;35138;-42
2022/08/02 00:51:27;;;;;;;5.30;4.40;;;;;;;;;;110692;1251;34991;-46
2022/08/02 00:53:59;;;;;;;6.60;4.90;;;;;;;;;;110641;1245;35507;-41
2022/08/02 00:56:31;;;;;;;5.10;4.30;;;;;;;;;;110693;1245;35013;-38
2022/08/02 00:59:05;;;;;;;6.70;4.20;;;;;;;;;;110614;1250;34976;-37
2022/08/02 01:01:40;;;;;;;5.60;4.10;;;;;;;;;;110591;1248;35385;-33
2022/08/02 01:04:14;;;;;;;5.40;4.30;;;;;;;;;;110606;1251;35204;-36
2022/08/02 01:06:46;;;;;;;6.60;4.50;;;;;;;;;;110685;1244;35088;-39
2022/08/02 01:09:18;;;;;;;5.70;4.40;;;;;;;;;;110713;1247;35252;-37
2022/08/02 01:11:53;;;;;;;8.40;4.40;;;;;;;;;;110746;1251;35656;-38
2022/08/02 01:14:28;;;;;;;7.50;4.60;;;;;;;;;;110646;1251;33390;-35
2022/08/02 01:17:07;;;;;;;5.80;4.60;;;;;;;;;;110739;1251;35293;-36
2022/08/02 01:19:56;;;;;;;5.80;4.50;;;;;;;;;;110771;1245;35507;-39
2022/08/02 01:23:03;;;;;;;6.20;4.50;;;;;;;;;;110604;1253;34916;-36
2022/08/02 01:25:57;;;;;;;5.40;4.30;;;;;;;;;;110613;1248;34986;-40
2022/08/02 01:28:38;;;;;;;5.30;4.40;;;;;;;;;;110590;1254;35122;-34
2022/08/02 01:31:18;;;;;;;7.10;4.70;;;;;;;;;;110715;1251;33908;-36
2022/08/02 01:33:56;;;;;;;7.10;4.40;;;;;;;;;;110635;1251;33732;-38
2022/08/02 01:36:33;;;;;;;6.40;4.80;;;;;;;;;;110709;1251;35038;-39
2022/08/02 01:39:06;;;;;;;6.50;4.80;;;;;;;;;;110699;1251;34888;-36
2022/08/02 01:41:42;;;;;;;5.50;4.50;;;;;;;;;;110607;1251;34077;-37
2022/08/02 01:44:17;;;;;;;6.40;4.70;;;;;;;;;;110630;1244;35031;-37
2022/08/02 01:47:00;;;;;;;6.30;4.90;;;;;;;;;;110765;1244;34144;-40
2022/08/02 01:49:31;;;;;;;;;;;;;;;;;;110646;1251;36209;-42
2022/08/02 01:52:24;;;;;;;6.70;5.00;;;;;;;;;;110652;1248;35177;-38
2022/08/02 01:55:03;;;;;;;6.30;4.80;;;;;;;;;;110712;1251;35061;-42
2022/08/02 01:57:41;;;;;;;7.20;4.80;;;;;;;;;;110775;1243;34275;-41
2022/08/02 02:00:16;;;;;;;6.10;4.90;;;;;;;;;;110682;1245;35177;-45
2022/08/02 02:02:51;;;;;;;6.00;5.00;;;;;;;;;;110672;1251;35107;-38
2022/08/02 02:05:27;;;;;;;5.50;4.70;;;;;;;;;;110632;1244;33645;-37
2022/08/02 02:08:01;;;;;;;7.00;5.30;;;;;;;;;;110714;1251;33484;-38
2022/08/02 02:10:37;;;;;;;5.90;4.90;;;;;;;;;;110659;1251;35098;-35
2022/08/02 02:13:14;;;;;;;7.00;5.10;;;;;;;;;;110742;1243;35042;-36
2022/08/02 02:15:48;;;;;;;6.60;5.00;;;;;;;;;;110732;1248;35220;-37
2022/08/02 02:18:24;;;;;;;6.80;5.20;;;;;;;;;;110709;1244;35372;-44
2022/08/02 02:20:57;;;;;;;7.00;4.90;;;;;;;;;;110710;1251;34971;-37
2022/08/02 02:23:29;;;;;;;6.60;4.90;;;;;;;;;;110781;1251;35069;-39
2022/08/02 02:26:02;;;;;;;7.00;4.90;;;;;;;;;;110683;1244;34985;-38
2022/08/02 02:28:36;;;;;;;6.00;5.00;;;;;;;;;;110701;1251;35131;-39
2022/08/02 02:31:12;;;;;;;6.10;4.80;;;;;;;;;;110713;1251;35070;-39
2022/08/02 02:33:52;;;;;;;6.40;4.60;;;;;;;;;;110649;1251;34004;-37
2022/08/02 02:36:24;;;;;;;5.80;4.80;;;;;;;;;;110770;1251;35225;-36
2022/08/02 02:39:00;;;;;;;5.50;4.50;;;;;;;;;;110666;1245;35106;-39
2022/08/02 02:41:32;;;;;;;6.30;4.80;;;;;;;;;;110712;1245;34944;-39
2022/08/02 02:44:06;;;;;;;5.50;4.30;;;;;;;;;;110633;1251;35200;-40
2022/08/02 02:46:39;;;;;;;6.10;5.10;;;;;;;;;;110678;1251;33353;-37
2022/08/02 02:49:13;;;;;;;6.60;4.90;;;;;;;;;;110746;1251;35117;-38
2022/08/02 02:51:45;;;;;;;7.00;5.00;;;;;;;;;;110647;1252;33782;-41
2022/08/02 02:54:19;;;;;;;7.80;5.00;;;;;;;;;;110759;1251;33326;-39
2022/08/02 02:56:52;;;;;;;5.60;5.00;;;;;;;;;;110615;1244;34949;-36
2022/08/02 02:59:25;;;;;;;6.20;5.00;;;;;;;;;;110707;1245;35522;-35
2022/08/02 03:01:57;;;;;;;6.50;4.80;;;;;;;;;;110645;1251;35049;-37
2022/08/02 03:04:30;;;;;;;5.30;4.70;;;;;;;;;;110797;1251;33374;-40
2022/08/02 03:07:04;;;;;;;6.30;5.40;;;;;;;;;;110765;1245;34366;-35
2022/08/02 03:09:35;;;;;;;6.80;4.60;;;;;;;;;;110653;1253;35326;-39
2022/08/02 03:12:10;;;;;;;6.00;4.90;;;;;;;;;;110730;1251;36069;-37
2022/08/02 03:14:45;;;;;;;6.00;4.60;;;;;;;;;;110620;1252;33368;-39
2022/08/02 03:17:18;;;;;;;6.40;5.40;;;;;;;;;;110761;1244;35067;-38
2022/08/02 03:19:50;;;;;;;6.10;5.20;;;;;;;;;;110672;1244;34937;-39
2022/08/02 03:22:22;;;;;;;7.40;4.90;;;;;;;;;;110644;1251;35389;-41
2022/08/02 03:24:54;;;;;;;5.80;5.20;;;;;;;;;;110701;1251;34990;-38
2022/08/02 03:27:27;;;;;;;6.30;5.60;;;;;;;;;;110726;1244;33764;-40
2022/08/02 03:29:59;;;;;;;6.60;4.80;;;;;;;;;;110652;1253;34921;-36
2022/08/02 03:32:31;;;;;;;6.50;5.30;;;;;;;;;;110672;1251;35653;-36
2022/08/02 03:35:04;;;;;;;6.90;5.60;;;;;;;;;;110382;1245;524840;-45
2022/08/02 03:37:35;;;;;;;;;;;;;;;;;;110697;1251;34953;-38
2022/08/02 03:40:12;;;;;;;7.30;5.80;;;;;;;;;;110751;1251;34945;-39
2022/08/02 03:42:44;;;;;;;5.50;4.90;;;;;;;;;;110594;1244;33329;-36
2022/08/02 03:45:17;;;;;;;6.50;5.40;;;;;;;;;;110634;1248;35029;-38
2022/08/02 03:47:53;;;;;;;6.40;5.30;;;;;;;;;;110596;1252;34611;-38
2022/08/02 03:50:25;;;;;;;6.50;5.50;;;;;;;;;;110676;1251;35093;-36
2022/08/02 03:52:58;;;;;;;6.70;4.70;;;;;;;;;;110770;1251;34964;-34
2022/08/02 03:55:34;;;;;;;6.30;5.00;;;;;;;;;;110767;1251;35092;-36
2022/08/02 03:58:09;;;;;;;6.40;5.40;;;;;;;;;;110788;1251;35128;-35
2022/08/02 04:00:42;;;;;;;6.30;5.10;;;;;;;;;;110673;1251;35202;-33
2022/08/02 04:03:14;;;;;;;6.80;5.30;;;;;;;;;;110640;1253;33954;-34
2022/08/02 04:05:47;;;;;;;6.10;5.30;;;;;;;;;;110611;1253;35033;-34
2022/08/02 04:08:19;;;;;;;6.60;5.30;;;;;;;;;;110627;1252;34974;-35
2022/08/02 04:13:44;;;;;;;7.00;5.20;;;;;;;;;;110640;1248;33687;-33
2022/08/02 04:16:22;;;;;;;5.40;4.90;;;;;;;;;;110653;1252;34182;-35
2022/08/02 04:18:58;;;;;;;5.80;5.20;;;;;;;;;;110649;1252;34906;-37
2022/08/02 04:21:35;;;;;;;6.00;5.10;;;;;;;;;;110649;1253;35286;-35
2022/08/02 04:24:09;;;;;;;5.70;4.80;;;;;;;;;;110633;1253;34956;-33
2022/08/02 04:26:43;;;;;;;6.10;5.10;;;;;;;;;;110653;1247;35540;-35
2022/08/02 04:29:16;;;;;;;6.20;4.80;;;;;;;;;;110659;1253;34100;-36
2022/08/02 04:31:49;;;;;;;6.00;5.10;;;;;;;;;;110708;1253;33368;-35
2022/08/02 04:34:21;;;;;;;5.80;5.20;;;;;;;;;;110657;1248;33287;-35
2022/08/02 04:36:54;;;;;;;6.70;5.50;;;;;;;;;;110667;1252;35305;-35
2022/08/02 04:39:26;;;;;;;5.70;5.10;;;;;;;;;;110495;1254;35105;-35
2022/08/02 04:41:59;;;;;;;5.60;4.80;;;;;;;;;;110615;1252;35020;-36
2022/08/02 04:44:34;;;;;;;7.50;5.30;;;;;;;;;;110645;1252;35098;-35
2022/08/02 04:47:09;;;;;;;6.20;5.30;;;;;;;;;;110635;1248;35209;-35
2022/08/02 04:49:44;;;;;;;7.10;5.50;;;;;;;;;;110650;1247;35291;-37
2022/08/02 04:52:16;;;;;;;6.00;5.20;;;;;;;;;;110787;1251;34903;-36
2022/08/02 04:54:50;;;;;;;5.90;5.30;;;;;;;;;;110810;1251;35012;-38
2022/08/02 05:00:14;;;;;;;7.20;5.70;;;;;;;;;;110827;1245;35505;-36
2022/08/02 05:02:47;;;;;;;6.50;5.40;;;;;;;;;;110838;1243;35104;-36
2022/08/02 05:05:19;;;;;;;7.30;6.00;;;;;;;;;;110813;1244;34973;-38
2022/08/02 05:07:51;;;;;;;6.80;5.50;;;;;;;;;;110797;1251;34536;-35
2022/08/02 05:10:24;;;;;;;6.60;5.80;;;;;;;;;;110794;1251;33311;-37
2022/08/02 05:12:57;;;;;;;6.30;5.70;;;;;;;;;;110806;1251;35004;-35
2022/08/02 05:15:32;;;;;;;7.10;5.40;;;;;;;;;;110825;1244;34982;-33
2022/08/02 05:18:05;;;;;;;6.40;5.70;;;;;;;;;;110785;1251;34790;-35
2022/08/02 05:20:40;;;;;;;6.80;5.80;;;;;;;;;;110790;1251;35414;-33
2022/08/02 05:23:16;;;;;;;6.80;5.50;;;;;;;;;;110781;1251;34984;-34
2022/08/02 05:25:50;;;;;;;7.10;5.80;;;;;;;;;;110784;1244;34898;-34
2022/08/02 05:28:22;;;;;;;6.50;5.70;;;;;;;;;;110778;1251;34420;-34
2022/08/02 05:30:54;;;;;;;7.20;5.80;;;;;;;;;;110800;1251;34537;-33
2022/08/02 05:33:26;;;;;;;6.90;5.60;;;;;;;;;;110804;1251;35065;-34
2022/08/02 05:35:59;;;;;;;7.10;5.70;;;;;;;;;;110795;1251;35128;-35
2022/08/02 05:38:31;;;;;;;6.30;5.70;;;;;;;;;;110771;1244;34749;-33
2022/08/02 05:41:03;;;;;;;6.60;5.80;;;;;;;;;;110789;1245;35135;-35
2022/08/02 05:43:35;;;;;;;8.10;6.00;;;;;;;;;;110767;1245;35163;-35
2022/08/02 05:46:10;;;;;;;7.00;6.20;;;;;;;;;;110793;1251;34981;-35
2022/08/02 05:48:44;;;;;;;6.20;5.60;;;;;;;;;;110790;1251;34888;-37
2022/08/02 05:51:27;;;;;;;6.20;5.30;;;;;;;;;;110819;1245;34853;-36
2022/08/02 05:54:11;;;;;;;6.90;6.00;;;;;;;;;;110807;1250;34988;-35
2022/08/02 05:56:50;;;;;;;7.70;5.70;;;;;;;;;;110825;1248;33793;-35
2022/08/02 05:59:30;;;;;;;7.80;5.90;;;;;;;;;;110828;1245;35028;-36
2022/08/02 06:02:09;;;;;;;5.90;5.30;;;;;;;;;;110842;1250;34279;-37
2022/08/02 06:04:56;;;;;;;6.50;5.50;;;;;;;;;;110883;1251;34271;-38
2022/08/02 06:07:29;;;;;;;7.20;5.50;;;;;;;;;;110906;1250;35165;-39
2022/08/02 06:10:02;;;;;;;7.10;5.30;;;;;;;;;;110876;1244;35029;-38
2022/08/02 06:12:39;;;;;;;7.00;5.80;;;;;;;;;;110851;1250;35164;-35
2022/08/02 06:15:15;;;;;;;7.70;5.50;;;;;;;;;;110840;1250;35187;-37
2022/08/02 06:17:48;;;;;;;6.00;5.10;;;;;;;;;;110882;1251;35117;-40
2022/08/02 06:20:21;;;;;;;6.30;5.20;;;;;;;;;;110885;1250;35028;-37
2022/08/02 06:22:54;;;;;;;6.70;5.60;;;;;;;;;;110862;1250;35089;-38
2022/08/02 06:25:27;;;;;;;6.90;5.30;;;;;;;;;;110888;1245;35120;-39
2022/08/02 06:28:00;;;;;;;6.10;5.30;;;;;;;;;;110882;1250;34293;-38
2022/08/02 06:30:33;;;;;;;6.50;5.40;;;;;;;;;;110887;1244;35059;-40
2022/08/02 06:33:05;;;;;;;6.10;5.40;;;;;;;;;;110876;1244;35140;-38
2022/08/02 06:35:46;;;;;;;5.90;4.90;;;;;;;;;;110855;1250;35035;-36
2022/08/02 06:38:24;;;;;;;6.50;4.90;;;;;;;;;;110855;1250;35051;-37
2022/08/02 06:41:08;;;;;;;6.50;4.80;;;;;;;;;;110809;1250;35462;-38
2022/08/02 06:43:50;;;;;;;6.60;4.80;;;;;;;;;;110854;1250;35483;-38
2022/08/02 06:46:23;;;;;;;6.20;4.50;;;;;;;;;;110856;1242;35152;-36
2022/08/02 06:48:56;;;;;;;5.90;4.50;;;;;;;;;;110863;1242;34959;-37
2022/08/02 06:51:28;;;;;;;5.40;4.30;;;;;;;;;;110857;1250;35146;-40
2022/08/02 06:54:04;;;;;;;6.70;4.30;;;;;;;;;;110833;1250;34792;-37
2022/08/02 06:56:36;;;;;;;5.90;4.20;;;;;;;;;;110877;1250;34967;-36
2022/08/02 06:59:08;;;;;;;5.20;3.80;;;;;;;;;;110832;1245;35101;-36
2022/08/02 07:01:40;;;;;;;5.80;3.80;;;;;;;;;;110875;1250;35414;-38
2022/08/02 07:04:12;;;;;;;5.40;3.10;;;;;;;;;;110871;1250;34987;-37
2022/08/02 07:06:44;;;;;;;5.20;3.40;;;;;;;;;;110890;1251;35268;-37
2022/08/02 07:09:16;;;;;;;5.00;3.70;;;;;;;;;;110881;1250;34417;-38
2022/08/02 07:11:48;;;;;;;5.80;4.10;;;;;;;;;;110898;1244;35052;-38
2022/08/02 07:14:20;;;;;;;4.80;3.50;;;;;;;;;;110918;1250;34970;-40
2022/08/02 07:16:53;;;;;;;4.80;3.40;;;;;;;;;;110905;1250;35373;-36
2022/08/02 07:19:25;;;;;;;6.80;3.40;;;;;;;;;;110884;1251;35312;-38
2022/08/02 07:21:57;;;;;;;5.00;3.60;;;;;;;;;;110903;1244;34346;-38
2022/08/02 07:24:30;;;;;;;5.60;3.80;;;;;;;;;;110903;1244;34923;-38
2022/08/02 07:27:02;;;;;;;6.40;4.00;;;;;;;;;;110884;1245;35390;-38
2022/08/02 07:29:34;;;;;;;7.90;3.90;;;;;;;;;;110891;1250;35025;-37
2022/08/02 07:32:07;;;;;;;5.30;3.40;;;;;;;;;;110911;1250;34295;-37
2022/08/02 07:34:39;;;;;;;7.50;3.70;;;;;;;;;;110929;1243;35075;-39
2022/08/02 07:37:11;;;;;;;4.80;3.20;;;;;;;;;;110910;1245;33274;-37
2022/08/02 07:39:43;;;;;;;5.80;3.90;;;;;;;;;;110901;1244;35124;-37
2022/08/02 07:42:16;;;;;;;5.50;3.30;;;;;;;;;;110928;1250;34240;-37
2022/08/02 07:44:47;;;;;;;4.80;3.00;;;;;;;;;;110875;1250;34783;-37
2022/08/02 07:47:19;;;;;;;5.10;3.10;;;;;;;;;;110892;1251;35114;-37
2022/08/02 07:49:51;;;;;;;6.80;3.10;;;;;;;;;;110613;1244;35017;-47
2022/08/02 07:52:26;;;;;;;5.80;3.00;;;;;;;;;;110563;1243;35126;-35
2022/08/02 07:54:58;;;;;;;4.40;2.80;;;;;;;;;;110622;1244;33529;-37
2022/08/02 07:57:31;;;;;;;5.10;2.90;;;;;;;;;;110699;1250;35008;-37
2022/08/02 08:00:06;;;;;;;5.00;2.70;;;;;;;;;;110629;1244;34414;-38
2022/08/02 08:02:38;;;;;;;5.40;3.00;;;;;;;;;;110693;1242;35034;-41
2022/08/02 08:05:12;;;;;;;4.10;2.60;;;;;;;;;;110828;1251;35300;-38
2022/08/02 08:07:45;;;;;;;5.00;2.80;;;;;;;;;;110831;1242;34461;-38
2022/08/02 08:10:17;;;;;;;6.90;3.00;;;;;;;;;;110647;1251;34898;-38
2022/08/02 08:12:54;;;;;;;5.00;2.90;;;;;;;;;;110599;1250;34450;-35
2022/08/02 08:15:26;;;;;;;5.80;2.80;;;;;;;;;;110731;1251;33759;-38
2022/08/02 08:17:58;;;;;;;6.00;2.80;;;;;;;;;;110678;1244;34360;-41
2022/08/02 08:20:30;;;;;;;4.00;2.60;;;;;;;;;;110722;1251;34317;-37
2022/08/02 08:23:02;;;;;;;5.30;2.80;;;;;;;;;;110581;1253;33736;-36
2022/08/02 08:25:34;;;;;;;5.90;2.60;;;;;;;;;;110652;1244;34341;-37
2022/08/02 08:28:06;;;;;;;4.40;2.90;;;;;;;;;;110754;1244;33774;-39
2022/08/02 08:30:39;;;;;;;5.00;2.50;;;;;;;;;;110800;1244;33675;-38
2022/08/02 08:33:15;;;;;;;4.80;2.60;;;;;;;;;;110632;1251;35559;-39
2022/08/02 08:35:47;;;;;;;5.30;2.80;;;;;;;;;;110610;1251;32612;-37
2022/08/02 08:38:19;;;;;;;5.00;2.40;;;;;;;;;;110773;1251;33317;-36
2022/08/02 08:40:53;;;;;;;4.70;2.80;;;;;;;;;;110682;1251;35247;-36
2022/08/02 08:43:24;;;;;;;6.20;2.50;;;;;;;;;;110645;1245;34402;-37
2022/08/02 08:45:56;;;;;;;4.90;2.40;;;;;;;;;;110717;1245;33924;-35
2022/08/02 08:48:28;;;;;;;4.80;2.30;;;;;;;;;;110616;1251;35162;-41
2022/08/02 08:51:07;;;;;;;4.90;2.80;;;;;;;;;;110838;1243;35106;-37
2022/08/02 08:53:44;;;;;;;5.30;2.60;;;;;;;;;;110662;1251;35389;-38
2022/08/02 08:56:17;;;;;;;4.90;2.80;;;;;;;;;;110764;1251;35025;-35
2022/08/02 08:58:52;;;;;;;6.00;2.80;;;;;;;;;;110715;1251;35021;-34
2022/08/02 09:01:24;;;;;;;6.30;2.60;;;;;;;;;;110596;1244;35038;-37
2022/08/02 09:03:56;;;;;;;5.30;3.00;;;;;;;;;;110600;1252;34365;-38
2022/08/02 09:06:29;;;;;;;5.70;3.20;;;;;;;;;;110713;1251;35606;-35
2022/08/02 09:09:01;;;;;;;5.60;3.40;;;;;;;;;;110607;1252;34930;-36
2022/08/02 09:11:37;;;;;;;7.30;3.70;;;;;;;;;;110642;1251;35039;-36
2022/08/02 09:14:10;;;;;;;5.10;3.10;;;;;;;;;;110749;1251;35262;-35
2022/08/02 09:16:44;;;;;;;6.10;3.40;;;;;;;;;;110650;1251;34392;-35
2022/08/02 09:19:25;;;;;;;8.10;3.50;;;;;;;;;;110774;1245;34418;-39
2022/08/02 09:22:06;;;;;;;5.90;3.20;;;;;;;;;;110785;1243;33723;-37
2022/08/02 09:24:49;;;;;;;6.70;3.10;;;;;;;;;;110711;1251;34405;-40
2022/08/02 09:27:23;;;;;;;5.70;2.90;;;;;;;;;;110596;1253;35213;-37
2022/08/02 09:29:56;;;;;;;5.00;2.90;;;;;;;;;;110755;1251;34840;-35
2022/08/02 09:32:28;;;;;;;5.80;3.30;;;;;;;;;;110642;1245;35132;-39
2022/08/02 09:35:00;;;;;;;6.10;2.90;;;;;;;;;;110750;1243;35966;-36
2022/08/02 09:37:33;;;;;;;5.50;3.10;;;;;;;;;;110598;1252;35557;-36
2022/08/02 09:40:09;;;;;;;7.80;3.00;;;;;;;;;;110604;1252;35343;-36
2022/08/02 09:42:59;;;;;;;6.20;3.50;;;;;;;;;;110650;1251;35104;-40
2022/08/02 09:45:35;;;;;;;5.60;2.80;;;;;;;;;;110737;1244;34306;-40
2022/08/02 09:48:09;;;;;;;4.60;2.90;;;;;;;;;;110689;1244;35077;-37
2022/08/02 09:50:42;;;;;;;5.70;3.30;;;;;;;;;;110816;1251;35500;-37
2022/08/02 09:53:19;;;;;;;5.40;3.00;;;;;;;;;;110649;1252;35121;-42
2022/08/02 09:55:57;;;;;;;6.20;3.00;;;;;;;;;;110704;1245;33755;-39
2022/08/02 09:58:29;;;;;;;6.50;3.70;;;;;;;;;;110652;1244;33208;-38
2022/08/02 10:01:01;;;;;;;6.00;3.10;;;;;;;;;;110744;1251;33577;-34
2022/08/02 10:03:34;;;;;;;4.90;3.00;;;;;;;;;;110627;1252;35158;-40
2022/08/02 10:06:06;;;;;;;5.90;3.10;;;;;;;;;;110698;1251;35707;-39
2022/08/02 10:08:38;;;;;;;4.50;2.90;;;;;;;;;;110658;1245;35689;-37
2022/08/02 10:11:11;;;;;;;6.10;2.90;;;;;;;;;;110772;1244;35108;-37
2022/08/02 10:13:41;;;;;;;;;;;;;;;;;;110601;1252;35291;-37
2022/08/02 10:16:15;;;;;;;5.80;3.20;;;;;;;;;;110758;1244;34903;-41
2022/08/02 10:18:47;;;;;;;5.20;3.30;;;;;;;;;;110745;1251;34644;-41
2022/08/02 10:21:28;;;;;;;6.70;3.30;;;;;;;;;;110716;1245;35045;-37
2022/08/02 10:24:07;;;;;;;5.50;3.40;;;;;;;;;;110783;1251;35033;-44
2022/08/02 10:26:41;;;;;;;5.80;3.40;;;;;;;;;;110634;1251;34321;-35
2022/08/02 10:29:17;;;;;;;6.20;3.40;;;;;;;;;;110610;1252;34623;-35
2022/08/02 10:31:53;;;;;;;4.60;3.20;;;;;;;;;;110669;1252;35597;-34
2022/08/02 10:34:33;;;;;;;5.80;3.10;;;;;;;;;;110667;1252;35080;-42
2022/08/02 10:37:08;;;;;;;7.10;3.20;;;;;;;;;;110691;1247;35205;-39
2022/08/02 10:39:44;;;;;;;4.20;2.80;;;;;;;;;;110712;1244;34828;-37
2022/08/02 10:42:46;;;;;;;6.00;2.90;;;;;;;;;;110690;1252;34985;-35
2022/08/02 10:45:21;;;;;;;5.40;2.90;;;;;;;;;;110691;1252;34396;-36
2022/08/02 10:48:07;;;;;;;4.90;3.20;;;;;;;;;;110606;1253;33768;-33
2022/08/02 10:51:05;;;;;;;5.60;3.20;;;;;;;;;;110685;1252;34446;-34
2022/08/02 10:53:38;;;;;;;5.20;2.90;;;;;;;;;;110468;1252;35098;-37
2022/08/02 10:56:10;;;;;;;4.60;2.70;;;;;;;;;;110680;1252;35408;-36
2022/08/02 10:58:42;;;;;;;4.60;2.70;;;;;;;;;;110669;1252;35019;-34
2022/08/02 11:01:34;;;;;;;5.30;3.20;;;;;;;;;;110666;1253;34940;-36
2022/08/02 11:04:06;;;;;;;4.10;2.70;;;;;;;;;;110673;1244;35353;-37
2022/08/02 11:07:07;;;;;;;4.40;2.90;;;;;;;;;;110674;1253;35235;-36
2022/08/02 11:09:39;;;;;;;5.80;2.90;;;;;;;;;;110474;1253;35135;-35
2022/08/02 11:12:14;;;;;;;7.90;2.90;;;;;;;;;;110634;1252;35113;-38
2022/08/02 11:14:57;;;;;;;5.90;2.60;;;;;;;;;;110700;1244;35421;-38
2022/08/02 11:17:28;;;;;;;;;;;;;;;;;;110666;1247;34963;-39
2022/08/02 11:20:20;;;;;;;5.40;3.00;;;;;;;;;;110658;1247;34745;-38
2022/08/02 11:22:55;;;;;;;4.60;2.70;;;;;;;;;;110646;1252;35204;-39
2022/08/02 11:25:37;;;;;;;4.20;2.90;;;;;;;;;;110704;1252;35293;-38
2022/08/02 11:28:15;;;;;;;4.30;2.70;;;;;;;;;;110687;1246;35579;-41
2022/08/02 11:30:47;;;;;;;4.20;3.00;;;;;;;;;;110660;1244;35123;-39
2022/08/02 11:33:19;;;;;;;4.20;2.70;;;;;;;;;;110661;1247;35099;-37
2022/08/02 11:35:51;;;;;;;4.60;2.80;;;;;;;;;;110432;1252;321654;-38
2022/08/02 11:38:23;;;;;;;3.90;2.40;;;;;;;;;;110632;1252;35167;-39
2022/08/02 11:40:55;;;;;;;4.10;2.70;;;;;;;;;;110636;1247;34967;-40
2022/08/02 11:43:29;;;;;;;4.10;2.80;;;;;;;;;;110694;1244;35477;-40
2022/08/02 11:46:03;;;;;;;4.70;2.80;;;;;;;;;;110680;1252;35010;-39
2022/08/02 11:48:37;;;;;;;4.80;2.60;;;;;;;;;;110704;1252;35104;-41
2022/08/02 11:51:11;;;;;;;4.30;2.80;;;;;;;;;;110699;1252;35102;-35
2022/08/02 11:53:53;;;;;;;4.20;2.60;;;;;;;;;;110678;1252;35534;-40
2022/08/02 11:56:32;;;;;;;4.10;2.70;;;;;;;;;;110710;1244;35065;-41
2022/08/02 11:59:06;;;;;;;4.40;2.60;;;;;;;;;;110719;1244;35134;-38
2022/08/02 12:01:39;;;;;;;3.80;2.60;;;;;;;;;;110696;1252;34322;-38
2022/08/02 12:04:12;;;;;;;4.90;3.00;;;;;;;;;;110519;1253;34994;-38
2022/08/02 12:06:44;;;;;;;4.50;2.80;;;;;;;;;;110631;1252;34973;-37
2022/08/02 12:09:16;;;;;;;4.40;2.90;;;;;;;;;;110671;1246;33386;-37
2022/08/02 12:11:50;;;;;;;3.70;2.70;;;;;;;;;;110668;1247;34940;-38
2022/08/02 12:14:22;;;;;;;4.40;3.10;;;;;;;;;;110640;1252;34918;-39
2022/08/02 12:19:46;;;;;;;4.60;3.00;;;;;;;;;;110652;1245;33804;-39
2022/08/02 12:22:23;;;;;;;4.20;2.90;;;;;;;;;;110634;1252;34615;-36
2022/08/02 12:24:57;;;;;;;4.40;2.80;;;;;;;;;;110656;1244;34831;-37
2022/08/02 12:27:35;;;;;;;4.40;3.00;;;;;;;;;;110652;1252;35084;-35
2022/08/02 12:30:11;;;;;;;4.60;2.90;;;;;;;;;;110663;1252;35458;-39
2022/08/02 12:32:45;;;;;;;5.00;3.00;;;;;;;;;;110658;1244;35411;-40
2022/08/02 12:35:18;;;;;;;;;;;;;;;;;;110883;1244;33268;-37
2022/08/02 12:37:51;;;;;;;4.10;2.70;;;;;;;;;;110856;1244;34530;-36
2022/08/02 12:40:31;;;;;;;4.40;3.00;;;;;;;;;;110885;1244;34317;-36
2022/08/02 12:43:05;;;;;;;4.00;2.70;;;;;;;;;;110703;1251;34421;-38
2022/08/02 12:45:51;;;;;;;4.40;3.30;;;;;;;;;;110662;1244;36364;-35
2022/08/02 12:48:40;;;;;;;4.80;2.70;;;;;;;;;;110664;1252;33293;-35
2022/08/02 12:51:36;;;;;;;4.30;2.60;;;;;;;;;;110701;1244;35570;-37
2022/08/02 12:54:17;;;;;;;4.20;2.90;;;;;;;;;;110610;1244;35439;-38
2022/08/02 12:56:51;;;;;;;4.40;3.00;;;;;;;;;;110651;1253;34948;-35
2022/08/02 12:59:38;;;;;;;4.80;2.80;;;;;;;;;;110654;1252;34465;-35
2022/08/02 13:02:12;;;;;;;4.70;2.90;;;;;;;;;;110605;1244;35222;-37
2022/08/02 13:04:45;;;;;;;4.60;2.90;;;;;;;;;;110688;1247;33279;-37
2022/08/02 13:07:17;;;;;;;3.80;2.80;;;;;;;;;;110649;1253;35388;-35
2022/08/02 13:09:49;;;;;;;4.40;2.60;;;;;;;;;;110683;1253;35485;-34
2022/08/02 13:12:21;;;;;;;4.60;3.20;;;;;;;;;;110640;1253;34517;-35
2022/08/02 13:14:53;;;;;;;4.30;3.00;;;;;;;;;;110670;1253;35121;-35
2022/08/02 13:17:25;;;;;;;4.30;2.90;;;;;;;;;;110652;1253;35138;-35
2022/08/02 13:19:57;;;;;;;4.10;2.70;;;;;;;;;;110657;1252;34988;-39
2022/08/02 13:22:29;;;;;;;3.70;2.60;;;;;;;;;;110665;1252;35216;-37
2022/08/02 13:25:01;;;;;;;3.90;2.60;;;;;;;;;;110691;1247;35192;-35
2022/08/02 13:27:34;;;;;;;4.90;2.60;;;;;;;;;;110675;1247;35354;-36
2022/08/02 13:30:08;;;;;;;3.80;2.70;;;;;;;;;;110685;1247;35222;-36
2022/08/02 13:32:40;;;;;;;3.70;2.40;;;;;;;;;;110709;1252;35365;-35
2022/08/02 13:35:12;;;;;;;3.70;2.80;;;;;;;;;;110676;1252;35161;-36
2022/08/02 13:37:46;;;;;;;3.90;2.40;;;;;;;;;;110661;1247;34981;-36
2022/08/02 13:40:18;;;;;;;4.40;2.70;;;;;;;;;;110705;1244;35234;-36
2022/08/02 13:42:50;;;;;;;4.10;2.60;;;;;;;;;;110654;1247;34929;-36
2022/08/02 13:45:22;;;;;;;4.20;2.40;;;;;;;;;;110480;1244;35201;-35
2022/08/02 13:47:54;;;;;;;4.40;2.70;;;;;;;;;;110622;1252;35344;-36
2022/08/02 13:50:28;;;;;;;3.80;2.80;;;;;;;;;;110701;1247;35003;-36
2022/08/02 13:53:01;;;;;;;4.20;2.80;;;;;;;;;;110640;1251;34966;-37
2022/08/02 13:55:33;;;;;;;3.80;2.50;;;;;;;;;;110756;1246;34978;-35
2022/08/02 13:58:04;;;;;;;3.40;2.50;;;;;;;;;;110697;1251;34988;-36
2022/08/02 14:00:37;;;;;;;3.60;2.50;;;;;;;;;;110721;1251;34913;-36
2022/08/02 14:03:10;;;;;;;3.80;2.30;;;;;;;;;;110759;1246;35419;-36
2022/08/02 14:05:43;;;;;;;4.00;2.60;;;;;;;;;;110625;1245;35089;-35
2022/08/02 14:08:16;;;;;;;3.80;2.50;;;;;;;;;;110788;1244;34357;-39
2022/08/02 14:10:47;;;;;;;;;;;;;;;;;;110787;1251;35446;-41
2022/08/02 14:13:20;;;;;;;4.40;2.90;;;;;;;;;;110854;1250;35009;-37
2022/08/02 14:15:52;;;;;;;3.80;2.40;;;;;;;;;;110673;1247;35039;-36
2022/08/02 14:18:25;;;;;;;3.60;2.40;;;;;;;;;;110752;1251;34346;-38
2022/08/02 14:20:57;;;;;;;3.60;2.70;;;;;;;;;;110770;1248;34954;-37
2022/08/02 14:23:31;;;;;;;3.80;2.70;;;;;;;;;;110631;1251;34285;-36
2022/08/02 14:26:04;;;;;;;3.60;2.40;;;;;;;;;;110784;1251;34962;-39
2022/08/02 14:28:36;;;;;;;4.10;2.50;;;;;;;;;;110779;1244;35044;-36
2022/08/02 14:31:08;;;;;;;3.70;2.60;;;;;;;;;;110730;1251;33450;-35
2022/08/02 14:33:40;;;;;;;3.70;2.60;;;;;;;;;;110778;1247;34539;-34
2022/08/02 14:36:15;;;;;;;4.30;2.60;;;;;;;;;;110668;1251;35066;-36
2022/08/02 14:38:47;;;;;;;4.40;2.40;;;;;;;;;;110720;1251;35466;-37
2022/08/02 14:41:19;;;;;;;4.10;2.60;;;;;;;;;;110667;1245;35333;-35
2022/08/02 14:44:03;;;;;;;4.00;2.80;;;;;;;;;;110673;1251;35088;-37
2022/08/02 14:46:39;;;;;;;3.80;2.40;;;;;;;;;;110735;1245;33407;-36
2022/08/02 14:49:11;;;;;;;3.70;2.50;;;;;;;;;;110793;1251;33294;-37
2022/08/02 14:51:43;;;;;;;3.80;2.80;;;;;;;;;;110622;1251;35003;-37
2022/08/02 14:54:16;;;;;;;3.50;2.40;;;;;;;;;;110744;1251;35034;-35
2022/08/02 14:56:48;;;;;;;3.70;2.70;;;;;;;;;;110699;1251;35395;-35
2022/08/02 14:59:20;;;;;;;3.70;2.50;;;;;;;;;;110783;1251;34636;-36
2022/08/02 15:01:52;;;;;;;3.30;2.20;;;;;;;;;;110788;1251;35468;-35
2022/08/02 15:04:25;;;;;;;3.70;2.20;;;;;;;;;;110830;1244;35084;-34
2022/08/02 15:06:57;;;;;;;3.50;2.40;;;;;;;;;;110774;1251;33826;-35
2022/08/02 15:09:30;;;;;;;4.60;2.70;;;;;;;;;;110813;1251;35068;-35
2022/08/02 15:12:03;;;;;;;5.70;3.70;;;;;;;;;;110828;1251;35517;-35
2022/08/02 15:14:36;;;;;;;5.00;3.50;;;;;;;;;;110790;1251;34330;-34
2022/08/02 15:17:09;;;;;;;5.20;3.30;;;;;;;;;;110814;1251;35505;-35
2022/08/02 15:19:41;;;;;;;4.90;3.20;;;;;;;;;;110827;1245;35068;-35
2022/08/02 15:22:13;;;;;;;4.90;3.30;;;;;;;;;;110782;1251;35072;-35
2022/08/02 15:24:46;;;;;;;3.90;2.80;;;;;;;;;;110782;1251;34941;-33